Terminal Aerodrome Forecast
Issued by NWS

Home | Current Version | Previous Version | Text Only | Print | Product List | Glossary On
Versions: 1 2 3 4 5 6 7 8 9 10 11 12 13 14 15 16
000
FTUS45 KSLC 250531
TAFSGU
TAF
KSGU 250531Z 2506/2606 04005KT P6SM SKC
     FM251000 VRB04KT P6SM SKC
     FM251900 34006KT P6SM SKC
     FM260100 04009KT P6SM SKC=

USA.gov is the U.S. government's official web portal to all federal, state and local government web resources and services.